Holiday City, Ohio
Current Conditions -  °F | °C
As of 10:14 AM on Wednesday 22 Oct 2014 (Local Time) from KJYM Reporting Station
Overcast Overcast  
Wind Chill: 39°   Ceiling: 1500
Heat Index: 43°   Visibility: 10mi
Dew Point: 40°   Wind: 7mph
Humidity: 87%   Direction: 20°NNE
Pressure: 30.33"   Gusts: NA
Location:  41.6146°N, 84.6314°W
Report Text: KJYM 221414Z AUTO 02006KT 10SM OVC015 06/04 A3033 RMK AO2 T00620042
Loading
Personal Weather Stations






























Interactive Weather Map
Tropical Storm Tracking
New forecast layout! Learn more

10-Day Weather Forecast

Advertisements
Track Severe Weather on mobile